sensor_id;sensor_type;location;lat;lon;timestamp;P1;durP1;ratioP1;P2;durP2;ratioP2
23712;SDS011;12035;49.978;8.298;2023-06-14T00:02:15;3.53;;;2.90;;
23712;SDS011;12035;49.978;8.298;2023-06-14T00:07:13;5.75;;;3.50;;
23712;SDS011;12035;49.978;8.298;2023-06-14T00:12:11;6.32;;;3.08;;
23712;SDS011;12035;49.978;8.298;2023-06-14T00:17:08;6.57;;;3.38;;
23712;SDS011;12035;49.978;8.298;2023-06-14T00:22:07;6.43;;;3.05;;
23712;SDS011;12035;49.978;8.298;2023-06-14T00:27:04;6.53;;;3.47;;
23712;SDS011;12035;49.978;8.298;2023-06-14T00:32:03;6.95;;;3.35;;
23712;SDS011;12035;49.978;8.298;2023-06-14T00:37:01;5.65;;;2.92;;
23712;SDS011;12035;49.978;8.298;2023-06-14T00:42:00;7.15;;;3.15;;
23712;SDS011;12035;49.978;8.298;2023-06-14T00:46:57;5.22;;;3.42;;
23712;SDS011;12035;49.978;8.298;2023-06-14T00:51:54;5.32;;;2.92;;
23712;SDS011;12035;49.978;8.298;2023-06-14T00:56:51;5.38;;;3.10;;
23712;SDS011;12035;49.978;8.298;2023-06-14T01:01:50;4.90;;;3.20;;
23712;SDS011;12035;49.978;8.298;2023-06-14T01:06:49;6.32;;;3.35;;
23712;SDS011;12035;49.978;8.298;2023-06-14T01:11:58;5.30;;;3.05;;
23712;SDS011;12035;49.978;8.298;2023-06-14T01:17:03;4.55;;;3.00;;
23712;SDS011;12035;49.978;8.298;2023-06-14T01:22:01;6.80;;;2.78;;
23712;SDS011;12035;49.978;8.298;2023-06-14T01:27:00;4.40;;;2.90;;
23712;SDS011;12035;49.978;8.298;2023-06-14T01:31:59;6.05;;;3.05;;
23712;SDS011;12035;49.978;8.298;2023-06-14T01:36:56;6.13;;;3.35;;
23712;SDS011;12035;49.978;8.298;2023-06-14T01:41:56;7.43;;;2.78;;
23712;SDS011;12035;49.978;8.298;2023-06-14T01:46:56;5.85;;;2.80;;
23712;SDS011;12035;49.978;8.298;2023-06-14T01:51:53;4.28;;;2.55;;
23712;SDS011;12035;49.978;8.298;2023-06-14T01:56:50;3.90;;;2.65;;
23712;SDS011;12035;49.978;8.298;2023-06-14T02:01:48;6.95;;;2.58;;
23712;SDS011;12035;49.978;8.298;2023-06-14T02:06:46;6.03;;;2.72;;
23712;SDS011;12035;49.978;8.298;2023-06-14T02:11:43;4.32;;;2.55;;
23712;SDS011;12035;49.978;8.298;2023-06-14T02:16:40;7.07;;;2.50;;
23712;SDS011;12035;49.978;8.298;2023-06-14T02:21:43;5.68;;;2.80;;
23712;SDS011;12035;49.978;8.298;2023-06-14T02:26:42;6.22;;;2.80;;
23712;SDS011;12035;49.978;8.298;2023-06-14T02:31:39;3.72;;;2.88;;
23712;SDS011;12035;49.978;8.298;2023-06-14T02:36:37;3.67;;;2.50;;
23712;SDS011;12035;49.978;8.298;2023-06-14T02:41:36;4.90;;;2.60;;
23712;SDS011;12035;49.978;8.298;2023-06-14T02:46:35;6.07;;;2.75;;
23712;SDS011;12035;49.978;8.298;2023-06-14T02:51:32;7.78;;;3.20;;
23712;SDS011;12035;49.978;8.298;2023-06-14T02:56:29;4.10;;;2.75;;
23712;SDS011;12035;49.978;8.298;2023-06-14T03:01:26;4.32;;;2.70;;
23712;SDS011;12035;49.978;8.298;2023-06-14T03:06:30;4.82;;;2.65;;
23712;SDS011;12035;49.978;8.298;2023-06-14T03:11:28;4.07;;;2.80;;
23712;SDS011;12035;49.978;8.298;2023-06-14T03:16:25;4.45;;;2.83;;
23712;SDS011;12035;49.978;8.298;2023-06-14T03:21:24;7.47;;;2.78;;
23712;SDS011;12035;49.978;8.298;2023-06-14T03:26:23;6.07;;;2.70;;
23712;SDS011;12035;49.978;8.298;2023-06-14T03:31:20;4.53;;;2.92;;
23712;SDS011;12035;49.978;8.298;2023-06-14T03:36:18;4.78;;;2.92;;
23712;SDS011;12035;49.978;8.298;2023-06-14T03:41:15;5.97;;;2.80;;
23712;SDS011;12035;49.978;8.298;2023-06-14T03:46:14;5.60;;;2.95;;
23712;SDS011;12035;49.978;8.298;2023-06-14T03:51:11;3.97;;;2.63;;
23712;SDS011;12035;49.978;8.298;2023-06-14T03:56:09;3.55;;;2.53;;
23712;SDS011;12035;49.978;8.298;2023-06-14T04:01:07;8.07;;;5.30;;
23712;SDS011;12035;49.978;8.298;2023-06-14T04:06:05;7.97;;;3.25;;
23712;SDS011;12035;49.978;8.298;2023-06-14T04:11:02;5.88;;;2.90;;
23712;SDS011;12035;49.978;8.298;2023-06-14T04:15:59;7.75;;;3.47;;
23712;SDS011;12035;49.978;8.298;2023-06-14T04:20:57;5.65;;;2.67;;
23712;SDS011;12035;49.978;8.298;2023-06-14T04:25:55;3.60;;;2.50;;
23712;SDS011;12035;49.978;8.298;2023-06-14T04:30:57;6.00;;;2.80;;
23712;SDS011;12035;49.978;8.298;2023-06-14T04:35:56;4.45;;;2.70;;
23712;SDS011;12035;49.978;8.298;2023-06-14T04:40:56;10.38;;;2.83;;
23712;SDS011;12035;49.978;8.298;2023-06-14T04:45:57;4.00;;;2.75;;
23712;SDS011;12035;49.978;8.298;2023-06-14T04:50:56;6.13;;;3.03;;
23712;SDS011;12035;49.978;8.298;2023-06-14T04:55:55;5.18;;;2.63;;
23712;SDS011;12035;49.978;8.298;2023-06-14T05:00:53;7.10;;;2.60;;
23712;SDS011;12035;49.978;8.298;2023-06-14T05:05:51;11.60;;;3.17;;
23712;SDS011;12035;49.978;8.298;2023-06-14T05:10:48;5.72;;;2.67;;
23712;SDS011;12035;49.978;8.298;2023-06-14T05:15:47;7.30;;;2.80;;
23712;SDS011;12035;49.978;8.298;2023-06-14T05:20:44;8.75;;;3.08;;
23712;SDS011;12035;49.978;8.298;2023-06-14T05:25:42;10.70;;;2.92;;
23712;SDS011;12035;49.978;8.298;2023-06-14T05:30:40;12.15;;;3.30;;
23712;SDS011;12035;49.978;8.298;2023-06-14T05:35:38;6.05;;;3.00;;
23712;SDS011;12035;49.978;8.298;2023-06-14T05:40:35;5.13;;;2.85;;
23712;SDS011;12035;49.978;8.298;2023-06-14T05:45:33;4.90;;;2.63;;
23712;SDS011;12035;49.978;8.298;2023-06-14T05:50:30;4.97;;;2.47;;
23712;SDS011;12035;49.978;8.298;2023-06-14T05:55:28;5.47;;;3.00;;
23712;SDS011;12035;49.978;8.298;2023-06-14T06:00:26;5.03;;;2.50;;
23712;SDS011;12035;49.978;8.298;2023-06-14T06:05:23;4.78;;;2.67;;
23712;SDS011;12035;49.978;8.298;2023-06-14T06:10:21;3.80;;;2.40;;
23712;SDS011;12035;49.978;8.298;2023-06-14T06:15:19;5.57;;;2.83;;
23712;SDS011;12035;49.978;8.298;2023-06-14T06:20:17;5.95;;;2.75;;
23712;SDS011;12035;49.978;8.298;2023-06-14T06:25:14;4.28;;;2.60;;
23712;SDS011;12035;49.978;8.298;2023-06-14T06:30:12;4.38;;;2.97;;
23712;SDS011;12035;49.978;8.298;2023-06-14T06:35:11;4.85;;;2.63;;
23712;SDS011;12035;49.978;8.298;2023-06-14T06:40:08;5.20;;;2.78;;
23712;SDS011;12035;49.978;8.298;2023-06-14T06:45:06;11.85;;;2.80;;
23712;SDS011;12035;49.978;8.298;2023-06-14T06:50:04;5.80;;;2.55;;
23712;SDS011;12035;49.978;8.298;2023-06-14T06:55:06;6.03;;;2.60;;
23712;SDS011;12035;49.978;8.298;2023-06-14T07:00:06;5.97;;;2.58;;
23712;SDS011;12035;49.978;8.298;2023-06-14T07:05:05;8.05;;;2.45;;
23712;SDS011;12035;49.978;8.298;2023-06-14T07:10:03;3.67;;;2.15;;
23712;SDS011;12035;49.978;8.298;2023-06-14T07:15:03;3.78;;;2.25;;
23712;SDS011;12035;49.978;8.298;2023-06-14T07:20:01;3.47;;;2.10;;
23712;SDS011;12035;49.978;8.298;2023-06-14T07:25:03;5.95;;;2.30;;
23712;SDS011;12035;49.978;8.298;2023-06-14T07:30:03;9.68;;;2.50;;
23712;SDS011;12035;49.978;8.298;2023-06-14T07:35:02;3.88;;;2.30;;
23712;SDS011;12035;49.978;8.298;2023-06-14T07:40:00;7.60;;;2.63;;
23712;SDS011;12035;49.978;8.298;2023-06-14T07:45:00;6.10;;;2.38;;
23712;SDS011;12035;49.978;8.298;2023-06-14T07:49:58;3.00;;;2.10;;
23712;SDS011;12035;49.978;8.298;2023-06-14T07:54:55;5.38;;;2.10;;
23712;SDS011;12035;49.978;8.298;2023-06-14T07:59:53;5.20;;;1.92;;
23712;SDS011;12035;49.978;8.298;2023-06-14T08:04:51;5.90;;;1.85;;
23712;SDS011;12035;49.978;8.298;2023-06-14T08:09:49;2.95;;;2.03;;
23712;SDS011;12035;49.978;8.298;2023-06-14T08:14:46;4.40;;;1.80;;
23712;SDS011;12035;49.978;8.298;2023-06-14T08:19:43;5.35;;;1.88;;
23712;SDS011;12035;49.978;8.298;2023-06-14T08:24:42;4.05;;;2.00;;
23712;SDS011;12035;49.978;8.298;2023-06-14T08:29:39;4.72;;;1.95;;
23712;SDS011;12035;49.978;8.298;2023-06-14T08:34:36;3.85;;;1.80;;
23712;SDS011;12035;49.978;8.298;2023-06-14T08:39:34;5.32;;;1.60;;
23712;SDS011;12035;49.978;8.298;2023-06-14T08:44:33;2.03;;;1.50;;
23712;SDS011;12035;49.978;8.298;2023-06-14T08:49:30;2.35;;;1.50;;
23712;SDS011;12035;49.978;8.298;2023-06-14T08:54:29;5.10;;;1.50;;
23712;SDS011;12035;49.978;8.298;2023-06-14T08:59:29;2.25;;;1.50;;
23712;SDS011;12035;49.978;8.298;2023-06-14T09:04:35;2.38;;;1.48;;
23712;SDS011;12035;49.978;8.298;2023-06-14T09:09:32;5.20;;;1.30;;
23712;SDS011;12035;49.978;8.298;2023-06-14T09:14:35;2.15;;;1.40;;
23712;SDS011;12035;49.978;8.298;2023-06-14T09:19:36;2.22;;;1.00;;
23712;SDS011;12035;49.978;8.298;2023-06-14T09:24:33;2.20;;;1.20;;
23712;SDS011;12035;49.978;8.298;2023-06-14T09:29:33;1.58;;;1.10;;
23712;SDS011;12035;49.978;8.298;2023-06-14T09:34:30;3.33;;;1.42;;
23712;SDS011;12035;49.978;8.298;2023-06-14T09:39:30;1.90;;;1.20;;
23712;SDS011;12035;49.978;8.298;2023-06-14T09:44:27;2.08;;;1.00;;
23712;SDS011;12035;49.978;8.298;2023-06-14T09:49:25;3.15;;;1.50;;
23712;SDS011;12035;49.978;8.298;2023-06-14T09:54:23;1.75;;;1.10;;
23712;SDS011;12035;49.978;8.298;2023-06-14T09:59:25;2.38;;;1.30;;
23712;SDS011;12035;49.978;8.298;2023-06-14T10:04:27;2.08;;;1.20;;
23712;SDS011;12035;49.978;8.298;2023-06-14T10:09:26;2.20;;;1.23;;
23712;SDS011;12035;49.978;8.298;2023-06-14T10:14:26;2.45;;;1.20;;
23712;SDS011;12035;49.978;8.298;2023-06-14T10:19:24;2.10;;;1.20;;
23712;SDS011;12035;49.978;8.298;2023-06-14T10:24:30;2.97;;;1.20;;
23712;SDS011;12035;49.978;8.298;2023-06-14T10:29:35;2.38;;;1.38;;
23712;SDS011;12035;49.978;8.298;2023-06-14T10:35:00;1.88;;;1.10;;
23712;SDS011;12035;49.978;8.298;2023-06-14T10:40:02;2.72;;;1.30;;
23712;SDS011;12035;49.978;8.298;2023-06-14T10:45:04;1.73;;;1.10;;
23712;SDS011;12035;49.978;8.298;2023-06-14T10:50:03;2.50;;;1.20;;
23712;SDS011;12035;49.978;8.298;2023-06-14T10:55:04;2.10;;;1.10;;
23712;SDS011;12035;49.978;8.298;2023-06-14T11:00:08;3.72;;;1.48;;
23712;SDS011;12035;49.978;8.298;2023-06-14T11:05:13;4.45;;;1.10;;
23712;SDS011;12035;49.978;8.298;2023-06-14T11:10:19;1.92;;;1.35;;
23712;SDS011;12035;49.978;8.298;2023-06-14T11:20:27;2.30;;;1.40;;
23712;SDS011;12035;49.978;8.298;2023-06-14T11:25:27;2.72;;;1.38;;
23712;SDS011;12035;49.978;8.298;2023-06-14T11:30:25;2.58;;;1.40;;
23712;SDS011;12035;49.978;8.298;2023-06-14T11:35:24;2.17;;;1.48;;
23712;SDS011;12035;49.978;8.298;2023-06-14T11:40:23;2.15;;;1.20;;
23712;SDS011;12035;49.978;8.298;2023-06-14T11:45:20;4.03;;;1.60;;
23712;SDS011;12035;49.978;8.298;2023-06-14T11:50:18;6.05;;;1.75;;
23712;SDS011;12035;49.978;8.298;2023-06-14T11:55:16;3.63;;;1.48;;
23712;SDS011;12035;49.978;8.298;2023-06-14T12:00:14;3.30;;;1.60;;
23712;SDS011;12035;49.978;8.298;2023-06-14T12:05:12;4.75;;;1.63;;
23712;SDS011;12035;49.978;8.298;2023-06-14T12:10:10;4.63;;;1.60;;
23712;SDS011;12035;49.978;8.298;2023-06-14T12:15:09;2.03;;;1.60;;
23712;SDS011;12035;49.978;8.298;2023-06-14T12:20:08;2.80;;;1.70;;
23712;SDS011;12035;49.978;8.298;2023-06-14T12:25:08;2.50;;;1.65;;
23712;SDS011;12035;49.978;8.298;2023-06-14T12:30:06;2.63;;;1.77;;
23712;SDS011;12035;49.978;8.298;2023-06-14T12:35:06;2.30;;;1.77;;
23712;SDS011;12035;49.978;8.298;2023-06-14T12:40:03;5.82;;;1.75;;
23712;SDS011;12035;49.978;8.298;2023-06-14T12:45:01;6.10;;;1.70;;
23712;SDS011;12035;49.978;8.298;2023-06-14T12:50:00;3.28;;;1.67;;
23712;SDS011;12035;49.978;8.298;2023-06-14T12:54:57;3.22;;;1.60;;
23712;SDS011;12035;49.978;8.298;2023-06-14T12:59:54;2.47;;;1.90;;
23712;SDS011;12035;49.978;8.298;2023-06-14T13:04:51;1.55;;;1.27;;
23712;SDS011;12035;49.978;8.298;2023-06-14T13:09:50;3.35;;;1.50;;
23712;SDS011;12035;49.978;8.298;2023-06-14T13:14:47;3.78;;;1.40;;
23712;SDS011;12035;49.978;8.298;2023-06-14T13:19:48;3.47;;;1.42;;
23712;SDS011;12035;49.978;8.298;2023-06-14T13:24:46;2.65;;;1.40;;
23712;SDS011;12035;49.978;8.298;2023-06-14T13:29:44;3.53;;;1.50;;
23712;SDS011;12035;49.978;8.298;2023-06-14T13:34:41;1.80;;;1.33;;
23712;SDS011;12035;49.978;8.298;2023-06-14T13:39:39;4.78;;;1.70;;
23712;SDS011;12035;49.978;8.298;2023-06-14T13:44:36;3.00;;;1.65;;
23712;SDS011;12035;49.978;8.298;2023-06-14T13:49:34;4.32;;;1.88;;
23712;SDS011;12035;49.978;8.298;2023-06-14T13:54:31;3.25;;;1.98;;
23712;SDS011;12035;49.978;8.298;2023-06-14T13:59:29;3.90;;;1.63;;
23712;SDS011;12035;49.978;8.298;2023-06-14T14:04:26;2.92;;;1.88;;
23712;SDS011;12035;49.978;8.298;2023-06-14T14:09:24;3.22;;;2.00;;
23712;SDS011;12035;49.978;8.298;2023-06-14T14:14:21;3.90;;;1.88;;
23712;SDS011;12035;49.978;8.298;2023-06-14T14:19:19;5.80;;;1.70;;
23712;SDS011;12035;49.978;8.298;2023-06-14T14:24:16;2.85;;;1.73;;
23712;SDS011;12035;49.978;8.298;2023-06-14T14:29:14;3.05;;;1.88;;
23712;SDS011;12035;49.978;8.298;2023-06-14T14:34:12;3.10;;;1.90;;
23712;SDS011;12035;49.978;8.298;2023-06-14T14:39:09;2.60;;;1.45;;
23712;SDS011;12035;49.978;8.298;2023-06-14T14:44:06;2.65;;;1.50;;
23712;SDS011;12035;49.978;8.298;2023-06-14T14:49:05;3.25;;;1.83;;
23712;SDS011;12035;49.978;8.298;2023-06-14T14:54:02;2.60;;;1.85;;
23712;SDS011;12035;49.978;8.298;2023-06-14T14:58:59;4.22;;;1.85;;
23712;SDS011;12035;49.978;8.298;2023-06-14T15:03:56;3.08;;;1.75;;
23712;SDS011;12035;49.978;8.298;2023-06-14T15:08:55;4.43;;;1.60;;
23712;SDS011;12035;49.978;8.298;2023-06-14T15:13:53;3.97;;;1.60;;
23712;SDS011;12035;49.978;8.298;2023-06-14T15:18:50;6.72;;;2.08;;
23712;SDS011;12035;49.978;8.298;2023-06-14T15:23:47;4.70;;;1.70;;
23712;SDS011;12035;49.978;8.298;2023-06-14T15:28:46;3.67;;;2.05;;
23712;SDS011;12035;49.978;8.298;2023-06-14T15:33:43;3.35;;;1.60;;
23712;SDS011;12035;49.978;8.298;2023-06-14T15:38:40;4.60;;;1.65;;
23712;SDS011;12035;49.978;8.298;2023-06-14T15:43:37;2.15;;;1.50;;
23712;SDS011;12035;49.978;8.298;2023-06-14T15:48:36;2.70;;;1.77;;
23712;SDS011;12035;49.978;8.298;2023-06-14T15:53:33;3.08;;;1.63;;
23712;SDS011;12035;49.978;8.298;2023-06-14T15:58:30;2.85;;;1.58;;
23712;SDS011;12035;49.978;8.298;2023-06-14T16:03:27;3.28;;;1.60;;
23712;SDS011;12035;49.978;8.298;2023-06-14T16:08:25;3.63;;;1.50;;
23712;SDS011;12035;49.978;8.298;2023-06-14T16:13:23;2.15;;;1.60;;
23712;SDS011;12035;49.978;8.298;2023-06-14T16:18:19;3.55;;;1.50;;
23712;SDS011;12035;49.978;8.298;2023-06-14T16:23:16;3.88;;;1.67;;
23712;SDS011;12035;49.978;8.298;2023-06-14T16:28:16;2.55;;;1.55;;
23712;SDS011;12035;49.978;8.298;2023-06-14T16:33:13;2.15;;;1.40;;
23712;SDS011;12035;49.978;8.298;2023-06-14T16:38:11;2.63;;;1.50;;
23712;SDS011;12035;49.978;8.298;2023-06-14T16:43:08;3.25;;;1.70;;
23712;SDS011;12035;49.978;8.298;2023-06-14T16:48:07;2.92;;;1.85;;
23712;SDS011;12035;49.978;8.298;2023-06-14T16:53:04;2.85;;;1.65;;
23712;SDS011;12035;49.978;8.298;2023-06-14T16:58:02;2.83;;;1.50;;
23712;SDS011;12035;49.978;8.298;2023-06-14T17:02:59;2.65;;;1.75;;
23712;SDS011;12035;49.978;8.298;2023-06-14T17:07:58;3.05;;;1.58;;
23712;SDS011;12035;49.978;8.298;2023-06-14T17:12:55;2.28;;;1.42;;
23712;SDS011;12035;49.978;8.298;2023-06-14T17:17:52;2.22;;;1.60;;
23712;SDS011;12035;49.978;8.298;2023-06-14T17:22:50;2.17;;;1.60;;
23712;SDS011;12035;49.978;8.298;2023-06-14T17:27:48;2.92;;;1.95;;
23712;SDS011;12035;49.978;8.298;2023-06-14T17:32:45;3.67;;;1.77;;
23712;SDS011;12035;49.978;8.298;2023-06-14T17:37:42;3.92;;;1.83;;
23712;SDS011;12035;49.978;8.298;2023-06-14T17:42:40;2.95;;;1.90;;
23712;SDS011;12035;49.978;8.298;2023-06-14T17:47:38;3.28;;;2.17;;
23712;SDS011;12035;49.978;8.298;2023-06-14T17:52:35;3.10;;;1.90;;
23712;SDS011;12035;49.978;8.298;2023-06-14T17:57:32;2.63;;;1.70;;
23712;SDS011;12035;49.978;8.298;2023-06-14T18:02:29;4.80;;;1.83;;
23712;SDS011;12035;49.978;8.298;2023-06-14T18:07:28;2.50;;;1.55;;
23712;SDS011;12035;49.978;8.298;2023-06-14T18:12:25;2.30;;;1.50;;
23712;SDS011;12035;49.978;8.298;2023-06-14T18:17:23;4.15;;;2.15;;
23712;SDS011;12035;49.978;8.298;2023-06-14T18:22:20;3.50;;;1.55;;
23712;SDS011;12035;49.978;8.298;2023-06-14T18:27:18;2.65;;;1.88;;
23712;SDS011;12035;49.978;8.298;2023-06-14T18:32:16;3.42;;;2.13;;
23712;SDS011;12035;49.978;8.298;2023-06-14T18:37:13;3.10;;;1.90;;
23712;SDS011;12035;49.978;8.298;2023-06-14T18:42:10;11.32;;;1.83;;
23712;SDS011;12035;49.978;8.298;2023-06-14T18:47:09;5.15;;;2.10;;
23712;SDS011;12035;49.978;8.298;2023-06-14T18:52:07;4.38;;;1.80;;
23712;SDS011;12035;49.978;8.298;2023-06-14T18:57:09;5.82;;;2.03;;
23712;SDS011;12035;49.978;8.298;2023-06-14T19:02:09;3.08;;;1.80;;
23712;SDS011;12035;49.978;8.298;2023-06-14T19:07:07;4.68;;;1.80;;
23712;SDS011;12035;49.978;8.298;2023-06-14T19:12:07;5.38;;;1.90;;
23712;SDS011;12035;49.978;8.298;2023-06-14T19:17:09;3.22;;;1.67;;
23712;SDS011;12035;49.978;8.298;2023-06-14T19:22:06;3.20;;;1.95;;
23712;SDS011;12035;49.978;8.298;2023-06-14T19:27:04;3.30;;;2.20;;
23712;SDS011;12035;49.978;8.298;2023-06-14T19:32:01;4.07;;;2.10;;
23712;SDS011;12035;49.978;8.298;2023-06-14T19:37:00;2.85;;;1.90;;
23712;SDS011;12035;49.978;8.298;2023-06-14T19:41:59;3.17;;;1.90;;
23712;SDS011;12035;49.978;8.298;2023-06-14T19:46:56;3.33;;;2.35;;
23712;SDS011;12035;49.978;8.298;2023-06-14T19:51:54;4.07;;;2.17;;
23712;SDS011;12035;49.978;8.298;2023-06-14T19:56:52;3.05;;;1.85;;
23712;SDS011;12035;49.978;8.298;2023-06-14T20:01:49;4.13;;;1.90;;
23712;SDS011;12035;49.978;8.298;2023-06-14T20:06:46;2.67;;;1.90;;
23712;SDS011;12035;49.978;8.298;2023-06-14T20:11:49;4.78;;;2.15;;
23712;SDS011;12035;49.978;8.298;2023-06-14T20:16:48;2.78;;;1.88;;
23712;SDS011;12035;49.978;8.298;2023-06-14T20:21:46;3.58;;;1.95;;
23712;SDS011;12035;49.978;8.298;2023-06-14T20:26:43;4.45;;;2.00;;
23712;SDS011;12035;49.978;8.298;2023-06-14T20:31:40;4.90;;;2.20;;
23712;SDS011;12035;49.978;8.298;2023-06-14T20:36:39;3.65;;;1.80;;
23712;SDS011;12035;49.978;8.298;2023-06-14T20:41:37;5.32;;;2.25;;
23712;SDS011;12035;49.978;8.298;2023-06-14T20:46:34;4.65;;;1.92;;
23712;SDS011;12035;49.978;8.298;2023-06-14T20:51:32;3.03;;;1.95;;
23712;SDS011;12035;49.978;8.298;2023-06-14T20:56:30;2.75;;;1.98;;
23712;SDS011;12035;49.978;8.298;2023-06-14T21:01:27;3.40;;;1.90;;
23712;SDS011;12035;49.978;8.298;2023-06-14T21:06:30;4.45;;;2.10;;
23712;SDS011;12035;49.978;8.298;2023-06-14T21:11:34;4.00;;;2.00;;
23712;SDS011;12035;49.978;8.298;2023-06-14T21:16:31;2.70;;;1.80;;
23712;SDS011;12035;49.978;8.298;2023-06-14T21:21:29;4.45;;;2.10;;
23712;SDS011;12035;49.978;8.298;2023-06-14T21:26:26;2.67;;;1.70;;
23712;SDS011;12035;49.978;8.298;2023-06-14T21:31:25;3.05;;;1.80;;
23712;SDS011;12035;49.978;8.298;2023-06-14T21:36:22;2.65;;;1.70;;
23712;SDS011;12035;49.978;8.298;2023-06-14T21:41:19;4.70;;;1.90;;
23712;SDS011;12035;49.978;8.298;2023-06-14T21:46:17;2.80;;;1.90;;
23712;SDS011;12035;49.978;8.298;2023-06-14T21:51:16;3.17;;;1.90;;
23712;SDS011;12035;49.978;8.298;2023-06-14T21:56:13;2.20;;;1.63;;
23712;SDS011;12035;49.978;8.298;2023-06-14T22:01:10;3.08;;;1.60;;
23712;SDS011;12035;49.978;8.298;2023-06-14T22:06:07;4.38;;;1.50;;
23712;SDS011;12035;49.978;8.298;2023-06-14T22:11:06;2.95;;;2.00;;
23712;SDS011;12035;49.978;8.298;2023-06-14T22:16:03;3.22;;;1.77;;
23712;SDS011;12035;49.978;8.298;2023-06-14T22:21:02;2.35;;;1.63;;
23712;SDS011;12035;49.978;8.298;2023-06-14T22:25:59;2.40;;;1.55;;
23712;SDS011;12035;49.978;8.298;2023-06-14T22:30:57;2.92;;;1.67;;
23712;SDS011;12035;49.978;8.298;2023-06-14T22:35:54;2.10;;;1.40;;
23712;SDS011;12035;49.978;8.298;2023-06-14T22:40:51;2.60;;;1.38;;
23712;SDS011;12035;49.978;8.298;2023-06-14T22:45:48;3.75;;;1.70;;
23712;SDS011;12035;49.978;8.298;2023-06-14T22:50:47;2.40;;;1.60;;
23712;SDS011;12035;49.978;8.298;2023-06-14T22:55:45;2.33;;;1.58;;
23712;SDS011;12035;49.978;8.298;2023-06-14T23:00:42;3.58;;;1.42;;
23712;SDS011;12035;49.978;8.298;2023-06-14T23:05:41;2.28;;;1.52;;
23712;SDS011;12035;49.978;8.298;2023-06-14T23:10:42;3.40;;;1.48;;
23712;SDS011;12035;49.978;8.298;2023-06-14T23:15:40;2.40;;;1.52;;
23712;SDS011;12035;49.978;8.298;2023-06-14T23:20:37;2.75;;;1.55;;
23712;SDS011;12035;49.978;8.298;2023-06-14T23:25:35;4.75;;;1.73;;
23712;SDS011;12035;49.978;8.298;2023-06-14T23:30:33;4.75;;;1.70;;
23712;SDS011;12035;49.978;8.298;2023-06-14T23:35:31;4.25;;;1.50;;
23712;SDS011;12035;49.978;8.298;2023-06-14T23:40:28;2.95;;;1.70;;
23712;SDS011;12035;49.978;8.298;2023-06-14T23:45:28;2.30;;;1.60;;
23712;SDS011;12035;49.978;8.298;2023-06-14T23:50:26;2.55;;;1.60;;
23712;SDS011;12035;49.978;8.298;2023-06-14T23:55:23;4.70;;;1.80;;
